Startpagina
METAR-TAF:

METAR-TAF

Vliegvelden :

Aéroport Les Eplatures

La Chaux-de-Fonds, Zwitserland

breedte: 47-05-03N, lengte: 006-47-37E, hoogte: 1027 m

Actueel weer

Dit bericht is 30 minuten geleden gemaakt, om 15:50 UTC
Wind 5 kt uit het zuidzuidwesten, variërend tussen het zuidoosten en het zuidwesten
Temperatuur 3°C
Vochtigheid 44%
Druk 1015 hPa
Zicht 10 km of meer
Gebroken wolken op 4900 ft

METAR: LSGC 281550Z AUTO 20005KT 130V220 9999 BKN049 03/M08 Q1015

Tijdstip: 17:20 (16:20 UTC)

Verwachting

Dit bericht is 1 uur en het 55 minuten geleden gemaakt, om 14:25 UTC
Verwachting geldig van 28 om 15 UTC tot 28 om 24 UTC
Wind 6 kt uit het zuidwesten
Zicht 10 km of meer
geen wolken onder 1500 m en geen cumulonimbus

TAF: LSGC 281425Z 2815/2824 23006KT CAVOK

Waarnemingen en weersverwachtingen van meer dan 4000 vliegvelden (METAR en TAF).

De beschikbare stations zijn de gele en rode punten op de kaart.

Ga met uw muis naar het station om de naam te zien.

Klik dan om waarnemingen en weersverwachtingen te zien.

kaart wijzigen: klik op de groene knoppen met een zwart kruis om in te zoomen, op de groene knop met een streepje om uit te zoomen of op de groene pijlen voor aangrenzende kaarten.


METAR-TAF: